sensor_id;sensor_type;location;lat;lon;timestamp;temperature;humidity
67862;DHT22;54665;51.462;6.698;2023-04-01T00:00:19;10.54;88.53
67862;DHT22;54665;51.462;6.698;2023-04-01T00:02:45;10.57;88.60
67862;DHT22;54665;51.462;6.698;2023-04-01T00:05:11;10.65;88.27
67862;DHT22;54665;51.462;6.698;2023-04-01T00:07:38;10.72;88.07
67862;DHT22;54665;51.462;6.698;2023-04-01T00:10:06;10.54;88.46
67862;DHT22;54665;51.462;6.698;2023-04-01T00:12:31;10.41;88.29
67862;DHT22;54665;51.462;6.698;2023-04-01T00:14:57;10.57;88.29
67862;DHT22;54665;51.462;6.698;2023-04-01T00:17:22;10.48;88.16
67862;DHT22;54665;51.462;6.698;2023-04-01T00:19:48;10.65;88.08
67862;DHT22;54665;51.462;6.698;2023-04-01T00:22:13;10.54;87.83
67862;DHT22;54665;51.462;6.698;2023-04-01T00:24:39;10.65;88.02
67862;DHT22;54665;51.462;6.698;2023-04-01T00:27:04;10.58;88.20
67862;DHT22;54665;51.462;6.698;2023-04-01T00:29:30;10.71;87.68
67862;DHT22;54665;51.462;6.698;2023-04-01T00:31:57;10.61;88.12
67862;DHT22;54665;51.462;6.698;2023-04-01T00:34:23;10.53;88.21
67862;DHT22;54665;51.462;6.698;2023-04-01T00:36:50;10.58;88.16
67862;DHT22;54665;51.462;6.698;2023-04-01T00:39:16;10.60;88.32
67862;DHT22;54665;51.462;6.698;2023-04-01T00:41:42;10.61;88.46
67862;DHT22;54665;51.462;6.698;2023-04-01T00:44:19;10.64;88.56
67862;DHT22;54665;51.462;6.698;2023-04-01T00:46:45;10.48;88.76
67862;DHT22;54665;51.462;6.698;2023-04-01T00:49:12;10.51;89.09
67862;DHT22;54665;51.462;6.698;2023-04-01T00:51:38;10.30;89.19
67862;DHT22;54665;51.462;6.698;2023-04-01T00:54:06;10.46;89.20
67862;DHT22;54665;51.462;6.698;2023-04-01T00:56:36;10.44;89.62
67862;DHT22;54665;51.462;6.698;2023-04-01T00:59:08;10.48;89.15
67862;DHT22;54665;51.462;6.698;2023-04-01T01:01:36;10.67;89.03
67862;DHT22;54665;51.462;6.698;2023-04-01T01:04:02;10.60;88.91
67862;DHT22;54665;51.462;6.698;2023-04-01T01:12:01;10.33;89.03
67862;DHT22;54665;51.462;6.698;2023-04-01T01:15:00;10.56;88.60
67862;DHT22;54665;51.462;6.698;2023-04-01T01:37:40;10.44;88.12
67862;DHT22;54665;51.462;6.698;2023-04-01T01:40:09;10.51;87.78
67862;DHT22;54665;51.462;6.698;2023-04-01T01:42:39;10.56;87.48
67862;DHT22;54665;51.462;6.698;2023-04-01T01:45:07;10.51;87.92
67862;DHT22;54665;51.462;6.698;2023-04-01T01:47:34;10.44;87.69
67862;DHT22;54665;51.462;6.698;2023-04-01T01:50:02;10.43;87.82
67862;DHT22;54665;51.462;6.698;2023-04-01T01:52:29;10.56;87.47
67862;DHT22;54665;51.462;6.698;2023-04-01T01:54:57;10.48;87.54
67862;DHT22;54665;51.462;6.698;2023-04-01T01:57:34;10.37;87.39
67862;DHT22;54665;51.462;6.698;2023-04-01T02:00:08;10.48;87.65
67862;DHT22;54665;51.462;6.698;2023-04-01T02:02:40;10.41;87.65
67862;DHT22;54665;51.462;6.698;2023-04-01T02:05:09;10.50;87.37
67862;DHT22;54665;51.462;6.698;2023-04-01T02:07:37;10.44;87.29
67862;DHT22;54665;51.462;6.698;2023-04-01T02:10:05;10.53;87.69
67862;DHT22;54665;51.462;6.698;2023-04-01T02:12:32;10.43;87.55
67862;DHT22;54665;51.462;6.698;2023-04-01T02:15:07;10.51;87.72
67862;DHT22;54665;51.462;6.698;2023-04-01T02:17:35;10.51;87.73
67862;DHT22;54665;51.462;6.698;2023-04-01T02:20:13;10.40;88.18
67862;DHT22;54665;51.462;6.698;2023-04-01T02:22:47;10.43;87.99
67862;DHT22;54665;51.462;6.698;2023-04-01T02:25:27;10.46;88.15
67862;DHT22;54665;51.462;6.698;2023-04-01T02:27:53;10.38;88.63
67862;DHT22;54665;51.462;6.698;2023-04-01T02:30:20;10.38;89.28
67862;DHT22;54665;51.462;6.698;2023-04-01T02:32:46;10.38;89.03
67862;DHT22;54665;51.462;6.698;2023-04-01T02:35:14;10.36;88.84
67862;DHT22;54665;51.462;6.698;2023-04-01T02:37:40;10.33;89.13
67862;DHT22;54665;51.462;6.698;2023-04-01T02:40:10;10.38;89.29
67862;DHT22;54665;51.462;6.698;2023-04-01T02:42:36;10.44;89.21
67862;DHT22;54665;51.462;6.698;2023-04-01T02:45:02;10.40;89.04
67862;DHT22;54665;51.462;6.698;2023-04-01T02:47:27;10.38;89.72
67862;DHT22;54665;51.462;6.698;2023-04-01T02:49:53;10.32;89.89
67862;DHT22;54665;51.462;6.698;2023-04-01T02:52:26;10.48;89.23
67862;DHT22;54665;51.462;6.698;2023-04-01T02:54:52;10.44;89.61
67862;DHT22;54665;51.462;6.698;2023-04-01T02:57:17;10.56;89.67
67862;DHT22;54665;51.462;6.698;2023-04-01T02:59:42;10.41;89.42
67862;DHT22;54665;51.462;6.698;2023-04-01T03:02:08;10.53;89.54
67862;DHT22;54665;51.462;6.698;2023-04-01T03:04:33;10.40;89.70
67862;DHT22;54665;51.462;6.698;2023-04-01T03:06:59;10.41;89.67
67862;DHT22;54665;51.462;6.698;2023-04-01T03:09:24;10.37;89.93
67862;DHT22;54665;51.462;6.698;2023-04-01T03:11:50;10.48;89.89
67862;DHT22;54665;51.462;6.698;2023-04-01T03:14:15;10.51;89.59
67862;DHT22;54665;51.462;6.698;2023-04-01T03:16:41;10.53;89.56
67862;DHT22;54665;51.462;6.698;2023-04-01T03:19:06;10.33;89.79
67862;DHT22;54665;51.462;6.698;2023-04-01T03:21:32;10.40;89.73
67862;DHT22;54665;51.462;6.698;2023-04-01T03:23:57;10.48;89.86
67862;DHT22;54665;51.462;6.698;2023-04-01T03:26:23;10.46;90.07
67862;DHT22;54665;51.462;6.698;2023-04-01T03:28:49;10.37;90.06
67862;DHT22;54665;51.462;6.698;2023-04-01T03:31:15;10.44;89.56
67862;DHT22;54665;51.462;6.698;2023-04-01T03:33:47;10.61;89.58
67862;DHT22;54665;51.462;6.698;2023-04-01T03:36:13;10.51;89.44
67862;DHT22;54665;51.462;6.698;2023-04-01T03:38:40;10.47;89.50
67862;DHT22;54665;51.462;6.698;2023-04-01T03:41:06;10.50;89.19
67862;DHT22;54665;51.462;6.698;2023-04-01T03:43:32;10.61;89.15
67862;DHT22;54665;51.462;6.698;2023-04-01T03:45:57;10.57;89.02
67862;DHT22;54665;51.462;6.698;2023-04-01T03:48:23;10.61;88.96
67862;DHT22;54665;51.462;6.698;2023-04-01T03:50:50;10.48;88.98
67862;DHT22;54665;51.462;6.698;2023-04-01T03:53:15;10.34;89.75
67862;DHT22;54665;51.462;6.698;2023-04-01T03:55:43;10.37;89.70
67862;DHT22;54665;51.462;6.698;2023-04-01T03:58:09;10.54;89.23
67862;DHT22;54665;51.462;6.698;2023-04-01T04:00:35;10.50;89.34
67862;DHT22;54665;51.462;6.698;2023-04-01T04:03:01;10.44;89.48
67862;DHT22;54665;51.462;6.698;2023-04-01T04:05:31;10.50;89.52
67862;DHT22;54665;51.462;6.698;2023-04-01T04:07:56;10.43;89.79
67862;DHT22;54665;51.462;6.698;2023-04-01T04:10:22;10.53;89.44
67862;DHT22;54665;51.462;6.698;2023-04-01T04:12:49;10.38;89.53
67862;DHT22;54665;51.462;6.698;2023-04-01T04:15:15;10.50;89.56
67862;DHT22;54665;51.462;6.698;2023-04-01T04:17:40;10.50;89.34
67862;DHT22;54665;51.462;6.698;2023-04-01T04:20:07;10.53;89.28
67862;DHT22;54665;51.462;6.698;2023-04-01T04:22:33;10.48;89.70
67862;DHT22;54665;51.462;6.698;2023-04-01T04:25:01;10.63;88.87
67862;DHT22;54665;51.462;6.698;2023-04-01T04:27:28;10.44;89.53
67862;DHT22;54665;51.462;6.698;2023-04-01T04:30:06;10.50;89.66
67862;DHT22;54665;51.462;6.698;2023-04-01T04:32:32;10.47;89.51
67862;DHT22;54665;51.462;6.698;2023-04-01T04:34:57;10.40;89.40
67862;DHT22;54665;51.462;6.698;2023-04-01T04:37:23;10.46;89.55
67862;DHT22;54665;51.462;6.698;2023-04-01T04:39:48;10.60;89.23
67862;DHT22;54665;51.462;6.698;2023-04-01T04:42:14;10.53;89.17
67862;DHT22;54665;51.462;6.698;2023-04-01T04:44:39;10.50;89.30
67862;DHT22;54665;51.462;6.698;2023-04-01T04:47:05;10.37;89.76
67862;DHT22;54665;51.462;6.698;2023-04-01T04:49:30;10.46;89.65
67862;DHT22;54665;51.462;6.698;2023-04-01T04:51:56;10.51;89.30
67862;DHT22;54665;51.462;6.698;2023-04-01T04:54:24;10.29;89.52
67862;DHT22;54665;51.462;6.698;2023-04-01T04:56:53;10.64;89.10
67862;DHT22;54665;51.462;6.698;2023-04-01T04:59:20;10.56;89.15
67862;DHT22;54665;51.462;6.698;2023-04-01T05:01:54;10.41;89.80
67862;DHT22;54665;51.462;6.698;2023-04-01T05:04:20;10.63;89.29
67862;DHT22;54665;51.462;6.698;2023-04-01T05:06:45;10.51;89.12
67862;DHT22;54665;51.462;6.698;2023-04-01T05:09:11;10.50;89.53
67862;DHT22;54665;51.462;6.698;2023-04-01T05:11:36;10.56;89.33
67862;DHT22;54665;51.462;6.698;2023-04-01T05:14:02;10.43;89.84
67862;DHT22;54665;51.462;6.698;2023-04-01T05:16:30;10.46;89.95
67862;DHT22;54665;51.462;6.698;2023-04-01T05:18:57;10.48;89.49
67862;DHT22;54665;51.462;6.698;2023-04-01T05:21:23;10.36;90.36
67862;DHT22;54665;51.462;6.698;2023-04-01T05:23:49;10.43;89.89
67862;DHT22;54665;51.462;6.698;2023-04-01T05:26:15;10.36;89.94
67862;DHT22;54665;51.462;6.698;2023-04-01T05:28:40;10.44;89.62
67862;DHT22;54665;51.462;6.698;2023-04-01T05:31:07;10.36;89.93
67862;DHT22;54665;51.462;6.698;2023-04-01T05:33:42;10.48;89.82
67862;DHT22;54665;51.462;6.698;2023-04-01T05:36:15;10.37;90.37
67862;DHT22;54665;51.462;6.698;2023-04-01T05:38:41;10.44;90.27
67862;DHT22;54665;51.462;6.698;2023-04-01T05:41:09;10.36;90.05
67862;DHT22;54665;51.462;6.698;2023-04-01T05:43:39;10.47;89.78
67862;DHT22;54665;51.462;6.698;2023-04-01T05:46:25;10.38;90.13
67862;DHT22;54665;51.462;6.698;2023-04-01T05:48:57;10.47;89.89
67862;DHT22;54665;51.462;6.698;2023-04-01T05:51:24;10.47;89.84
67862;DHT22;54665;51.462;6.698;2023-04-01T05:53:49;10.56;89.72
67862;DHT22;54665;51.462;6.698;2023-04-01T05:56:17;10.53;89.65
67862;DHT22;54665;51.462;6.698;2023-04-01T05:58:51;10.56;89.41
67862;DHT22;54665;51.462;6.698;2023-04-01T06:01:17;10.54;89.74
67862;DHT22;54665;51.462;6.698;2023-04-01T06:03:44;10.56;89.46
67862;DHT22;54665;51.462;6.698;2023-04-01T06:06:14;10.78;89.42
67862;DHT22;54665;51.462;6.698;2023-04-01T06:08:42;10.54;89.96
67862;DHT22;54665;51.462;6.698;2023-04-01T06:14:05;10.48;89.80
67862;DHT22;54665;51.462;6.698;2023-04-01T06:30:16;10.68;89.17
67862;DHT22;54665;51.462;6.698;2023-04-01T06:36:15;10.58;89.49
67862;DHT22;54665;51.462;6.698;2023-04-01T06:39:06;10.69;89.22
67862;DHT22;54665;51.462;6.698;2023-04-01T06:47:50;10.56;89.27
67862;DHT22;54665;51.462;6.698;2023-04-01T06:50:52;10.57;89.33
67862;DHT22;54665;51.462;6.698;2023-04-01T06:54:00;10.51;89.56
67862;DHT22;54665;51.462;6.698;2023-04-01T06:56:52;10.67;89.35
67862;DHT22;54665;51.462;6.698;2023-04-01T06:59:26;10.46;89.69
67862;DHT22;54665;51.462;6.698;2023-04-01T07:01:53;10.84;89.12
67862;DHT22;54665;51.462;6.698;2023-04-01T07:04:48;10.64;89.00
67862;DHT22;54665;51.462;6.698;2023-04-01T07:07:24;10.56;89.38
67862;DHT22;54665;51.462;6.698;2023-04-01T07:09:58;10.69;89.07
67862;DHT22;54665;51.462;6.698;2023-04-01T07:12:49;10.47;89.38
67862;DHT22;54665;51.462;6.698;2023-04-01T07:15:42;10.56;88.99
67862;DHT22;54665;51.462;6.698;2023-04-01T07:18:15;10.63;89.34
67862;DHT22;54665;51.462;6.698;2023-04-01T07:20:42;10.53;89.31
67862;DHT22;54665;51.462;6.698;2023-04-01T07:23:16;10.54;88.91
67862;DHT22;54665;51.462;6.698;2023-04-01T07:26:14;10.54;89.26
67862;DHT22;54665;51.462;6.698;2023-04-01T07:29:08;10.60;88.71
67862;DHT22;54665;51.462;6.698;2023-04-01T07:34:27;10.79;88.87
67862;DHT22;54665;51.462;6.698;2023-04-01T07:37:00;10.57;89.50
67862;DHT22;54665;51.462;6.698;2023-04-01T07:45:23;10.46;89.75
67862;DHT22;54665;51.462;6.698;2023-04-01T07:56:10;10.38;90.24
67862;DHT22;54665;51.462;6.698;2023-04-01T08:01:19;10.54;89.66
67862;DHT22;54665;51.462;6.698;2023-04-01T08:06:53;10.68;89.76
67862;DHT22;54665;51.462;6.698;2023-04-01T08:10:05;10.82;89.14
67862;DHT22;54665;51.462;6.698;2023-04-01T08:21:47;10.54;89.17
67862;DHT22;54665;51.462;6.698;2023-04-01T08:24:25;10.60;89.81
67862;DHT22;54665;51.462;6.698;2023-04-01T08:26:55;10.77;89.61
67862;DHT22;54665;51.462;6.698;2023-04-01T08:30:15;10.77;89.31
67862;DHT22;54665;51.462;6.698;2023-04-01T08:32:28;10.69;89.18
67862;DHT22;54665;51.462;6.698;2023-04-01T08:35:28;10.89;88.88
67862;DHT22;54665;51.462;6.698;2023-04-01T08:38:01;10.75;89.40
67862;DHT22;54665;51.462;6.698;2023-04-01T08:40:58;10.87;89.11
67862;DHT22;54665;51.462;6.698;2023-04-01T08:51:49;10.98;88.81
67862;DHT22;54665;51.462;6.698;2023-04-01T08:57:06;10.98;89.01
67862;DHT22;54665;51.462;6.698;2023-04-01T09:05:30;11.23;88.47
67862;DHT22;54665;51.462;6.698;2023-04-01T09:08:07;11.43;87.33
67862;DHT22;54665;51.462;6.698;2023-04-01T09:28:06;11.57;87.52
67862;DHT22;54665;51.462;6.698;2023-04-01T09:33:41;11.60;87.33
67862;DHT22;54665;51.462;6.698;2023-04-01T09:36:21;11.79;86.86
67862;DHT22;54665;51.462;6.698;2023-04-01T09:38:58;11.28;88.08
67862;DHT22;54665;51.462;6.698;2023-04-01T09:41:30;11.29;88.79
67862;DHT22;54665;51.462;6.698;2023-04-01T09:50:35;11.29;88.02
67862;DHT22;54665;51.462;6.698;2023-04-01T09:53:11;11.32;88.39
67862;DHT22;54665;51.462;6.698;2023-04-01T09:58:21;11.11;88.68
67862;DHT22;54665;51.462;6.698;2023-04-01T10:01:52;11.39;88.22
67862;DHT22;54665;51.462;6.698;2023-04-01T10:23:22;11.38;88.35
67862;DHT22;54665;51.462;6.698;2023-04-01T10:26:22;11.32;88.94
67862;DHT22;54665;51.462;6.698;2023-04-01T10:29:19;11.30;88.76
67862;DHT22;54665;51.462;6.698;2023-04-01T10:41:01;11.39;89.20
67862;DHT22;54665;51.462;6.698;2023-04-01T10:47:16;11.43;87.93
67862;DHT22;54665;51.462;6.698;2023-04-01T10:52:55;11.47;87.52
67862;DHT22;54665;51.462;6.698;2023-04-01T11:02:12;11.44;88.81
67862;DHT22;54665;51.462;6.698;2023-04-01T11:05:46;11.43;89.15
67862;DHT22;54665;51.462;6.698;2023-04-01T11:14:49;11.63;88.09
67862;DHT22;54665;51.462;6.698;2023-04-01T11:20:17;11.84;87.45
67862;DHT22;54665;51.462;6.698;2023-04-01T11:23:49;11.36;88.47
67862;DHT22;54665;51.462;6.698;2023-04-01T11:32:47;11.95;88.05
67862;DHT22;54665;51.462;6.698;2023-04-01T11:44:27;11.90;87.50
67862;DHT22;54665;51.462;6.698;2023-04-01T11:47:34;12.05;86.85
67862;DHT22;54665;51.462;6.698;2023-04-01T11:53:06;11.97;87.30
67862;DHT22;54665;51.462;6.698;2023-04-01T11:55:38;11.95;87.59
67862;DHT22;54665;51.462;6.698;2023-04-01T12:01:10;12.30;86.64
67862;DHT22;54665;51.462;6.698;2023-04-01T12:04:12;12.37;87.24
67862;DHT22;54665;51.462;6.698;2023-04-01T12:12:23;12.42;85.32
67862;DHT22;54665;51.462;6.698;2023-04-01T12:15:14;12.79;85.67
67862;DHT22;54665;51.462;6.698;2023-04-01T12:17:47;12.65;86.29
67862;DHT22;54665;51.462;6.698;2023-04-01T12:20:38;12.48;85.28
67862;DHT22;54665;51.462;6.698;2023-04-01T12:23:20;12.14;86.92
67862;DHT22;54665;51.462;6.698;2023-04-01T12:37:53;11.86;87.84
67862;DHT22;54665;51.462;6.698;2023-04-01T12:41:10;11.65;88.26
67862;DHT22;54665;51.462;6.698;2023-04-01T12:43:58;11.62;88.30
67862;DHT22;54665;51.462;6.698;2023-04-01T12:52:08;11.47;88.88
67862;DHT22;54665;51.462;6.698;2023-04-01T13:09:01;11.43;88.49
67862;DHT22;54665;51.462;6.698;2023-04-01T13:11:56;11.52;88.74
67862;DHT22;54665;51.462;6.698;2023-04-01T13:17:10;11.67;88.65
67862;DHT22;54665;51.462;6.698;2023-04-01T13:19:40;11.35;89.22
67862;DHT22;54665;51.462;6.698;2023-04-01T13:25:10;11.50;88.94
67862;DHT22;54665;51.462;6.698;2023-04-01T13:27:44;11.50;89.63
67862;DHT22;54665;51.462;6.698;2023-04-01T13:30:33;11.49;88.80
67862;DHT22;54665;51.462;6.698;2023-04-01T13:33:04;11.76;88.82
67862;DHT22;54665;51.462;6.698;2023-04-01T13:38:26;11.69;89.27
67862;DHT22;54665;51.462;6.698;2023-04-01T13:41:13;11.49;89.01
67862;DHT22;54665;51.462;6.698;2023-04-01T13:44:06;11.43;89.55
67862;DHT22;54665;51.462;6.698;2023-04-01T13:46:52;11.46;89.27
67862;DHT22;54665;51.462;6.698;2023-04-01T13:52:00;11.44;89.96
67862;DHT22;54665;51.462;6.698;2023-04-01T13:54:52;11.30;89.54
67862;DHT22;54665;51.462;6.698;2023-04-01T14:00:18;11.57;89.77
67862;DHT22;54665;51.462;6.698;2023-04-01T14:02:50;11.86;88.84
67862;DHT22;54665;51.462;6.698;2023-04-01T14:05:46;11.55;89.29
67862;DHT22;54665;51.462;6.698;2023-04-01T14:08:39;11.50;89.22
67862;DHT22;54665;51.462;6.698;2023-04-01T14:11:16;11.79;89.77
67862;DHT22;54665;51.462;6.698;2023-04-01T14:17:10;11.79;88.45
67862;DHT22;54665;51.462;6.698;2023-04-01T14:22:39;11.77;89.04
67862;DHT22;54665;51.462;6.698;2023-04-01T14:25:28;11.52;89.32
67862;DHT22;54665;51.462;6.698;2023-04-01T14:31:04;11.76;88.78
67862;DHT22;54665;51.462;6.698;2023-04-01T14:33:50;11.46;89.20
67862;DHT22;54665;51.462;6.698;2023-04-01T14:36:50;11.46;90.21
67862;DHT22;54665;51.462;6.698;2023-04-01T14:45:06;11.69;89.21
67862;DHT22;54665;51.462;6.698;2023-04-01T14:47:51;11.59;89.38
67862;DHT22;54665;51.462;6.698;2023-04-01T14:50:28;11.65;88.59
67862;DHT22;54665;51.462;6.698;2023-04-01T14:55:51;11.60;88.85
67862;DHT22;54665;51.462;6.698;2023-04-01T14:58:19;11.52;88.99
67862;DHT22;54665;51.462;6.698;2023-04-01T15:12:16;11.39;89.38
67862;DHT22;54665;51.462;6.698;2023-04-01T15:18:18;11.46;89.46
67862;DHT22;54665;51.462;6.698;2023-04-01T15:21:23;11.52;89.48
67862;DHT22;54665;51.462;6.698;2023-04-01T15:24:00;11.52;89.08
67862;DHT22;54665;51.462;6.698;2023-04-01T15:26:43;11.77;88.80
67862;DHT22;54665;51.462;6.698;2023-04-01T15:29:28;11.71;88.79
67862;DHT22;54665;51.462;6.698;2023-04-01T15:32:13;11.76;88.90
67862;DHT22;54665;51.462;6.698;2023-04-01T15:40:22;11.67;89.07
67862;DHT22;54665;51.462;6.698;2023-04-01T15:43:12;11.73;89.27
67862;DHT22;54665;51.462;6.698;2023-04-01T15:45:49;11.80;89.14
67862;DHT22;54665;51.462;6.698;2023-04-01T15:48:40;11.84;89.01
67862;DHT22;54665;51.462;6.698;2023-04-01T15:51:12;12.08;87.98
67862;DHT22;54665;51.462;6.698;2023-04-01T15:53:45;12.24;87.31
67862;DHT22;54665;51.462;6.698;2023-04-01T15:56:26;12.32;87.18
67862;DHT22;54665;51.462;6.698;2023-04-01T15:59:17;12.18;87.29
67862;DHT22;54665;51.462;6.698;2023-04-01T16:01:59;12.22;87.52
67862;DHT22;54665;51.462;6.698;2023-04-01T16:07:48;12.20;87.60
67862;DHT22;54665;51.462;6.698;2023-04-01T16:18:49;11.86;88.84
67862;DHT22;54665;51.462;6.698;2023-04-01T16:22:05;11.57;89.49
67862;DHT22;54665;51.462;6.698;2023-04-01T16:24:50;11.55;89.70
67862;DHT22;54665;51.462;6.698;2023-04-01T16:33:00;11.46;88.98
67862;DHT22;54665;51.462;6.698;2023-04-01T16:37:52;11.56;89.15
67862;DHT22;54665;51.462;6.698;2023-04-01T16:43:56;11.25;90.41
67862;DHT22;54665;51.462;6.698;2023-04-01T16:46:27;11.57;89.25
67862;DHT22;54665;51.462;6.698;2023-04-01T16:52:04;11.56;89.18
67862;DHT22;54665;51.462;6.698;2023-04-01T16:54:58;11.59;88.86
67862;DHT22;54665;51.462;6.698;2023-04-01T16:57:28;11.56;89.02
67862;DHT22;54665;51.462;6.698;2023-04-01T17:02:38;11.65;88.90
67862;DHT22;54665;51.462;6.698;2023-04-01T17:05:10;11.59;89.10
67862;DHT22;54665;51.462;6.698;2023-04-01T17:19:19;11.36;89.51
67862;DHT22;54665;51.462;6.698;2023-04-01T17:21:57;11.30;90.03
67862;DHT22;54665;51.462;6.698;2023-04-01T17:32:12;11.25;90.24
67862;DHT22;54665;51.462;6.698;2023-04-01T17:35:05;11.14;90.05
67862;DHT22;54665;51.462;6.698;2023-04-01T17:37:50;11.29;90.01
67862;DHT22;54665;51.462;6.698;2023-04-01T17:40:49;11.20;90.00
67862;DHT22;54665;51.462;6.698;2023-04-01T17:46:20;11.29;90.09
67862;DHT22;54665;51.462;6.698;2023-04-01T18:00:23;11.22;90.45
67862;DHT22;54665;51.462;6.698;2023-04-01T18:03:20;11.18;90.41
67862;DHT22;54665;51.462;6.698;2023-04-01T18:09:00;11.23;89.93
67862;DHT22;54665;51.462;6.698;2023-04-01T18:11:48;11.11;90.65
67862;DHT22;54665;51.462;6.698;2023-04-01T18:22:48;11.22;90.71
67862;DHT22;54665;51.462;6.698;2023-04-01T18:25:36;11.19;90.54
67862;DHT22;54665;51.462;6.698;2023-04-01T18:28:26;11.19;90.58
67862;DHT22;54665;51.462;6.698;2023-04-01T18:39:13;11.12;90.87
67862;DHT22;54665;51.462;6.698;2023-04-01T18:41:56;11.20;90.63
67862;DHT22;54665;51.462;6.698;2023-04-01T18:44:51;11.16;90.46
67862;DHT22;54665;51.462;6.698;2023-04-01T18:47:23;11.22;90.26
67862;DHT22;54665;51.462;6.698;2023-04-01T18:52:31;11.26;90.01
67862;DHT22;54665;51.462;6.698;2023-04-01T18:57:46;11.35;90.24
67862;DHT22;54665;51.462;6.698;2023-04-01T19:00:23;11.20;90.27
67862;DHT22;54665;51.462;6.698;2023-04-01T19:05:37;11.11;91.02
67862;DHT22;54665;51.462;6.698;2023-04-01T19:11:20;11.14;90.34
67862;DHT22;54665;51.462;6.698;2023-04-01T19:14:12;11.22;90.01
67862;DHT22;54665;51.462;6.698;2023-04-01T19:17:01;11.28;89.96
67862;DHT22;54665;51.462;6.698;2023-04-01T19:22:41;11.33;89.50
67862;DHT22;54665;51.462;6.698;2023-04-01T19:27:48;11.20;89.24
67862;DHT22;54665;51.462;6.698;2023-04-01T19:30:31;10.89;89.90
67862;DHT22;54665;51.462;6.698;2023-04-01T19:35:45;10.97;89.85
67862;DHT22;54665;51.462;6.698;2023-04-01T19:38:30;11.04;89.61
67862;DHT22;54665;51.462;6.698;2023-04-01T19:43:59;10.97;89.67
67862;DHT22;54665;51.462;6.698;2023-04-01T19:46:33;10.92;89.16
67862;DHT22;54665;51.462;6.698;2023-04-01T19:54:51;10.89;88.45
67862;DHT22;54665;51.462;6.698;2023-04-01T20:00:15;10.87;88.00
67862;DHT22;54665;51.462;6.698;2023-04-01T20:03:01;10.78;88.25
67862;DHT22;54665;51.462;6.698;2023-04-01T20:05:40;10.71;88.07
67862;DHT22;54665;51.462;6.698;2023-04-01T20:11:21;10.77;88.15
67862;DHT22;54665;51.462;6.698;2023-04-01T20:17:15;10.69;88.60
67862;DHT22;54665;51.462;6.698;2023-04-01T20:25:30;10.53;88.31
67862;DHT22;54665;51.462;6.698;2023-04-01T20:36:05;10.64;88.00
67862;DHT22;54665;51.462;6.698;2023-04-01T20:41:43;10.38;87.78
67862;DHT22;54665;51.462;6.698;2023-04-01T20:44:19;10.53;87.74
67862;DHT22;54665;51.462;6.698;2023-04-01T20:49:46;10.36;88.11
67862;DHT22;54665;51.462;6.698;2023-04-01T20:52:29;10.30;87.62
67862;DHT22;54665;51.462;6.698;2023-04-01T20:57:38;10.12;87.19
67862;DHT22;54665;51.462;6.698;2023-04-01T21:03:18;10.05;86.89
67862;DHT22;54665;51.462;6.698;2023-04-01T21:14:01;10.20;87.15
67862;DHT22;54665;51.462;6.698;2023-04-01T21:16:49;10.12;87.38
67862;DHT22;54665;51.462;6.698;2023-04-01T21:25:21;9.82;87.53
67862;DHT22;54665;51.462;6.698;2023-04-01T21:30:54;9.78;88.00
67862;DHT22;54665;51.462;6.698;2023-04-01T21:39:32;9.93;87.18
67862;DHT22;54665;51.462;6.698;2023-04-01T21:42:36;9.63;88.15
67862;DHT22;54665;51.462;6.698;2023-04-01T21:48:16;9.58;87.87
67862;DHT22;54665;51.462;6.698;2023-04-01T21:56:54;9.32;88.62
67862;DHT22;54665;51.462;6.698;2023-04-01T21:59:32;9.27;88.67
67862;DHT22;54665;51.462;6.698;2023-04-01T22:07:31;9.15;88.61
67862;DHT22;54665;51.462;6.698;2023-04-01T22:10:09;8.93;88.90
67862;DHT22;54665;51.462;6.698;2023-04-01T22:18:05;8.91;88.09
67862;DHT22;54665;51.462;6.698;2023-04-01T22:20:38;8.86;87.96
67862;DHT22;54665;51.462;6.698;2023-04-01T22:23:28;8.93;88.22
67862;DHT22;54665;51.462;6.698;2023-04-01T22:28:54;8.73;87.90
67862;DHT22;54665;51.462;6.698;2023-04-01T22:31:28;8.73;88.23
67862;DHT22;54665;51.462;6.698;2023-04-01T22:50:18;8.45;89.62
67862;DHT22;54665;51.462;6.698;2023-04-01T22:52:47;8.35;90.20
67862;DHT22;54665;51.462;6.698;2023-04-01T22:55:24;8.39;90.43
67862;DHT22;54665;51.462;6.698;2023-04-01T22:57:55;8.42;90.90
67862;DHT22;54665;51.462;6.698;2023-04-01T23:00:26;8.39;91.21
67862;DHT22;54665;51.462;6.698;2023-04-01T23:03:17;8.26;90.65
67862;DHT22;54665;51.462;6.698;2023-04-01T23:05:52;8.21;90.11
67862;DHT22;54665;51.462;6.698;2023-04-01T23:10:58;8.35;89.77
67862;DHT22;54665;51.462;6.698;2023-04-01T23:13:39;8.18;90.14
67862;DHT22;54665;51.462;6.698;2023-04-01T23:16:08;8.14;90.42
67862;DHT22;54665;51.462;6.698;2023-04-01T23:18:40;8.14;90.65
67862;DHT22;54665;51.462;6.698;2023-04-01T23:26:54;8.15;90.25
67862;DHT22;54665;51.462;6.698;2023-04-01T23:29:21;8.08;90.60
67862;DHT22;54665;51.462;6.698;2023-04-01T23:31:48;8.12;90.05
67862;DHT22;54665;51.462;6.698;2023-04-01T23:34:24;8.20;89.89
67862;DHT22;54665;51.462;6.698;2023-04-01T23:36:57;8.11;89.92
67862;DHT22;54665;51.462;6.698;2023-04-01T23:39:26;7.99;89.84
67862;DHT22;54665;51.462;6.698;2023-04-01T23:41:56;7.99;89.25
67862;DHT22;54665;51.462;6.698;2023-04-01T23:44:25;7.81;89.71
67862;DHT22;54665;51.462;6.698;2023-04-01T23:46:51;7.97;89.61
67862;DHT22;54665;51.462;6.698;2023-04-01T23:49:38;8.08;88.91
67862;DHT22;54665;51.462;6.698;2023-04-01T23:52:19;8.08;89.46
67862;DHT22;54665;51.462;6.698;2023-04-01T23:54:53;7.95;89.27
67862;DHT22;54665;51.462;6.698;2023-04-01T23:57:23;7.81;89.19
